sensor_id;sensor_type;location;lat;lon;timestamp;temperature;humidity
15554;DHT22;7878;44.632;10.942;2022-11-30T00:00:29;9.40;99.90
15554;DHT22;7878;44.632;10.942;2022-11-30T00:02:56;9.40;99.90
15554;DHT22;7878;44.632;10.942;2022-11-30T00:05:22;9.40;99.90
15554;DHT22;7878;44.632;10.942;2022-11-30T00:07:49;9.30;99.90
15554;DHT22;7878;44.632;10.942;2022-11-30T00:10:15;9.40;99.90
15554;DHT22;7878;44.632;10.942;2022-11-30T00:12:41;9.40;99.90
15554;DHT22;7878;44.632;10.942;2022-11-30T00:15:12;9.40;99.90
15554;DHT22;7878;44.632;10.942;2022-11-30T00:17:39;9.40;99.90
15554;DHT22;7878;44.632;10.942;2022-11-30T00:20:05;9.30;99.90
15554;DHT22;7878;44.632;10.942;2022-11-30T00:22:31;9.30;99.90
15554;DHT22;7878;44.632;10.942;2022-11-30T00:24:57;9.30;99.90
15554;DHT22;7878;44.632;10.942;2022-11-30T00:27:31;9.30;99.90
15554;DHT22;7878;44.632;10.942;2022-11-30T00:29:58;9.30;99.90
15554;DHT22;7878;44.632;10.942;2022-11-30T00:32:25;9.30;99.90
15554;DHT22;7878;44.632;10.942;2022-11-30T00:34:51;9.30;99.90
15554;DHT22;7878;44.632;10.942;2022-11-30T00:37:17;9.40;99.90
15554;DHT22;7878;44.632;10.942;2022-11-30T00:39:42;9.30;99.90
15554;DHT22;7878;44.632;10.942;2022-11-30T00:42:08;9.30;99.90
15554;DHT22;7878;44.632;10.942;2022-11-30T00:44:34;9.30;99.90
15554;DHT22;7878;44.632;10.942;2022-11-30T00:46:59;9.20;99.90
15554;DHT22;7878;44.632;10.942;2022-11-30T00:49:25;9.20;99.90
15554;DHT22;7878;44.632;10.942;2022-11-30T00:51:51;9.20;99.90
15554;DHT22;7878;44.632;10.942;2022-11-30T00:54:17;9.20;99.90
15554;DHT22;7878;44.632;10.942;2022-11-30T00:56:43;9.20;99.90
15554;DHT22;7878;44.632;10.942;2022-11-30T00:59:08;9.20;99.90
15554;DHT22;7878;44.632;10.942;2022-11-30T01:01:34;9.20;99.90
15554;DHT22;7878;44.632;10.942;2022-11-30T01:04:00;9.20;99.90
15554;DHT22;7878;44.632;10.942;2022-11-30T01:06:26;9.20;99.90
15554;DHT22;7878;44.632;10.942;2022-11-30T01:08:52;9.20;99.90
15554;DHT22;7878;44.632;10.942;2022-11-30T01:11:28;9.20;99.90
15554;DHT22;7878;44.632;10.942;2022-11-30T01:13:56;9.20;99.90
15554;DHT22;7878;44.632;10.942;2022-11-30T01:16:25;9.20;99.90
15554;DHT22;7878;44.632;10.942;2022-11-30T01:18:51;9.20;99.90
15554;DHT22;7878;44.632;10.942;2022-11-30T01:21:19;9.20;99.90
15554;DHT22;7878;44.632;10.942;2022-11-30T01:23:46;9.10;99.90
15554;DHT22;7878;44.632;10.942;2022-11-30T01:26:12;9.20;99.90
15554;DHT22;7878;44.632;10.942;2022-11-30T01:28:38;9.20;99.90
15554;DHT22;7878;44.632;10.942;2022-11-30T01:31:07;9.20;99.90
15554;DHT22;7878;44.632;10.942;2022-11-30T01:33:34;9.20;99.90
15554;DHT22;7878;44.632;10.942;2022-11-30T01:36:06;9.20;99.90
15554;DHT22;7878;44.632;10.942;2022-11-30T01:38:37;9.20;99.90
15554;DHT22;7878;44.632;10.942;2022-11-30T01:41:04;9.20;99.90
15554;DHT22;7878;44.632;10.942;2022-11-30T01:43:49;9.20;99.90
15554;DHT22;7878;44.632;10.942;2022-11-30T01:48:44;9.20;99.90
15554;DHT22;7878;44.632;10.942;2022-11-30T01:51:11;9.10;99.90
15554;DHT22;7878;44.632;10.942;2022-11-30T01:53:36;9.10;99.90
15554;DHT22;7878;44.632;10.942;2022-11-30T01:56:02;9.10;99.90
15554;DHT22;7878;44.632;10.942;2022-11-30T01:58:29;9.10;99.90
15554;DHT22;7878;44.632;10.942;2022-11-30T02:00:55;9.10;99.90
15554;DHT22;7878;44.632;10.942;2022-11-30T02:04:18;9.10;99.90
15554;DHT22;7878;44.632;10.942;2022-11-30T02:06:35;9.10;99.90
15554;DHT22;7878;44.632;10.942;2022-11-30T02:09:01;9.00;99.90
15554;DHT22;7878;44.632;10.942;2022-11-30T02:11:27;9.00;99.90
15554;DHT22;7878;44.632;10.942;2022-11-30T02:14:09;9.00;99.90
15554;DHT22;7878;44.632;10.942;2022-11-30T02:16:45;9.00;99.90
15554;DHT22;7878;44.632;10.942;2022-11-30T02:22:03;9.00;99.90
15554;DHT22;7878;44.632;10.942;2022-11-30T02:27:20;9.10;99.90
15554;DHT22;7878;44.632;10.942;2022-11-30T02:29:57;9.00;99.90
15554;DHT22;7878;44.632;10.942;2022-11-30T02:32:34;9.00;99.90
15554;DHT22;7878;44.632;10.942;2022-11-30T02:35:02;9.00;99.90
15554;DHT22;7878;44.632;10.942;2022-11-30T02:37:29;8.90;99.90
15554;DHT22;7878;44.632;10.942;2022-11-30T02:39:56;8.90;99.90
15554;DHT22;7878;44.632;10.942;2022-11-30T02:42:22;8.80;99.90
15554;DHT22;7878;44.632;10.942;2022-11-30T02:44:50;8.80;99.90
15554;DHT22;7878;44.632;10.942;2022-11-30T02:49:59;8.80;99.90
15554;DHT22;7878;44.632;10.942;2022-11-30T02:52:27;8.80;99.90
15554;DHT22;7878;44.632;10.942;2022-11-30T02:55:07;8.80;99.90
15554;DHT22;7878;44.632;10.942;2022-11-30T02:57:33;8.80;99.90
15554;DHT22;7878;44.632;10.942;2022-11-30T03:00:00;8.80;99.90
15554;DHT22;7878;44.632;10.942;2022-11-30T03:02:26;8.70;99.90
15554;DHT22;7878;44.632;10.942;2022-11-30T03:04:51;8.70;99.90
15554;DHT22;7878;44.632;10.942;2022-11-30T03:07:17;8.70;99.90
15554;DHT22;7878;44.632;10.942;2022-11-30T03:09:43;8.70;99.90
15554;DHT22;7878;44.632;10.942;2022-11-30T03:12:08;8.70;99.90
15554;DHT22;7878;44.632;10.942;2022-11-30T03:14:34;8.60;99.90
15554;DHT22;7878;44.632;10.942;2022-11-30T03:17:00;8.60;99.90
15554;DHT22;7878;44.632;10.942;2022-11-30T03:19:25;8.60;99.90
15554;DHT22;7878;44.632;10.942;2022-11-30T03:21:51;8.60;99.90
15554;DHT22;7878;44.632;10.942;2022-11-30T03:24:17;8.50;99.90
15554;DHT22;7878;44.632;10.942;2022-11-30T03:26:42;8.50;99.90
15554;DHT22;7878;44.632;10.942;2022-11-30T03:29:08;8.50;99.90
15554;DHT22;7878;44.632;10.942;2022-11-30T03:31:34;8.50;99.90
15554;DHT22;7878;44.632;10.942;2022-11-30T03:33:59;8.40;99.90
15554;DHT22;7878;44.632;10.942;2022-11-30T03:36:25;8.40;99.90
15554;DHT22;7878;44.632;10.942;2022-11-30T03:38:51;8.40;99.90
15554;DHT22;7878;44.632;10.942;2022-11-30T03:41:17;8.40;99.90
15554;DHT22;7878;44.632;10.942;2022-11-30T03:43:44;8.40;99.90
15554;DHT22;7878;44.632;10.942;2022-11-30T03:46:10;8.40;99.90
15554;DHT22;7878;44.632;10.942;2022-11-30T03:48:36;8.30;99.90
15554;DHT22;7878;44.632;10.942;2022-11-30T03:51:03;8.30;99.90
15554;DHT22;7878;44.632;10.942;2022-11-30T03:53:29;8.30;99.90
15554;DHT22;7878;44.632;10.942;2022-11-30T03:55:58;8.30;99.90
15554;DHT22;7878;44.632;10.942;2022-11-30T03:58:25;8.20;99.90
15554;DHT22;7878;44.632;10.942;2022-11-30T04:01:18;8.30;99.90
15554;DHT22;7878;44.632;10.942;2022-11-30T04:03:48;8.20;99.90
15554;DHT22;7878;44.632;10.942;2022-11-30T04:06:15;8.20;99.90
15554;DHT22;7878;44.632;10.942;2022-11-30T04:08:41;8.20;99.90
15554;DHT22;7878;44.632;10.942;2022-11-30T04:11:07;8.20;99.90
15554;DHT22;7878;44.632;10.942;2022-11-30T04:13:35;8.10;99.90
15554;DHT22;7878;44.632;10.942;2022-11-30T04:16:01;8.10;99.90
15554;DHT22;7878;44.632;10.942;2022-11-30T04:18:29;8.10;99.90
15554;DHT22;7878;44.632;10.942;2022-11-30T04:20:56;8.10;99.90
15554;DHT22;7878;44.632;10.942;2022-11-30T04:23:23;8.10;99.90
15554;DHT22;7878;44.632;10.942;2022-11-30T04:25:49;8.00;99.90
15554;DHT22;7878;44.632;10.942;2022-11-30T04:28:16;8.00;99.90
15554;DHT22;7878;44.632;10.942;2022-11-30T04:30:43;8.00;99.90
15554;DHT22;7878;44.632;10.942;2022-11-30T04:33:11;8.00;99.90
15554;DHT22;7878;44.632;10.942;2022-11-30T04:35:47;8.00;99.90
15554;DHT22;7878;44.632;10.942;2022-11-30T04:38:13;8.00;99.90
15554;DHT22;7878;44.632;10.942;2022-11-30T04:40:39;7.90;99.90
15554;DHT22;7878;44.632;10.942;2022-11-30T04:43:05;7.90;99.90
15554;DHT22;7878;44.632;10.942;2022-11-30T04:45:31;7.90;99.90
15554;DHT22;7878;44.632;10.942;2022-11-30T04:47:57;7.90;99.90
15554;DHT22;7878;44.632;10.942;2022-11-30T04:50:23;7.90;99.90
15554;DHT22;7878;44.632;10.942;2022-11-30T04:52:48;7.90;99.90
15554;DHT22;7878;44.632;10.942;2022-11-30T04:55:14;7.80;99.90
15554;DHT22;7878;44.632;10.942;2022-11-30T04:57:44;7.80;99.90
15554;DHT22;7878;44.632;10.942;2022-11-30T05:00:11;7.80;99.90
15554;DHT22;7878;44.632;10.942;2022-11-30T05:02:37;7.80;99.90
15554;DHT22;7878;44.632;10.942;2022-11-30T05:05:02;7.80;99.90
15554;DHT22;7878;44.632;10.942;2022-11-30T05:07:28;7.70;99.90
15554;DHT22;7878;44.632;10.942;2022-11-30T05:09:54;7.70;99.90
15554;DHT22;7878;44.632;10.942;2022-11-30T05:12:19;7.70;99.90
15554;DHT22;7878;44.632;10.942;2022-11-30T05:14:45;7.70;99.90
15554;DHT22;7878;44.632;10.942;2022-11-30T05:17:10;7.70;99.90
15554;DHT22;7878;44.632;10.942;2022-11-30T05:19:36;7.70;99.90
15554;DHT22;7878;44.632;10.942;2022-11-30T05:22:02;7.70;99.90
15554;DHT22;7878;44.632;10.942;2022-11-30T05:24:27;7.70;99.90
15554;DHT22;7878;44.632;10.942;2022-11-30T05:26:53;7.70;99.90
15554;DHT22;7878;44.632;10.942;2022-11-30T05:29:19;7.70;99.90
15554;DHT22;7878;44.632;10.942;2022-11-30T05:31:44;7.70;99.90
15554;DHT22;7878;44.632;10.942;2022-11-30T05:34:10;7.70;99.90
15554;DHT22;7878;44.632;10.942;2022-11-30T05:36:36;7.70;99.90
15554;DHT22;7878;44.632;10.942;2022-11-30T05:39:02;7.70;99.90
15554;DHT22;7878;44.632;10.942;2022-11-30T05:41:28;7.80;99.90
15554;DHT22;7878;44.632;10.942;2022-11-30T05:43:53;7.80;99.90
15554;DHT22;7878;44.632;10.942;2022-11-30T05:46:19;7.90;99.90
15554;DHT22;7878;44.632;10.942;2022-11-30T05:48:44;7.90;99.90
15554;DHT22;7878;44.632;10.942;2022-11-30T05:51:13;7.90;99.90
15554;DHT22;7878;44.632;10.942;2022-11-30T05:53:43;7.90;99.90
15554;DHT22;7878;44.632;10.942;2022-11-30T05:56:11;7.90;99.90
15554;DHT22;7878;44.632;10.942;2022-11-30T05:58:37;8.00;99.90
15554;DHT22;7878;44.632;10.942;2022-11-30T06:01:04;8.00;99.90
15554;DHT22;7878;44.632;10.942;2022-11-30T06:03:30;8.00;99.90
15554;DHT22;7878;44.632;10.942;2022-11-30T06:05:56;8.00;99.90
15554;DHT22;7878;44.632;10.942;2022-11-30T06:08:22;8.00;99.90
15554;DHT22;7878;44.632;10.942;2022-11-30T06:10:48;8.00;99.90
15554;DHT22;7878;44.632;10.942;2022-11-30T06:13:14;8.00;99.90
15554;DHT22;7878;44.632;10.942;2022-11-30T06:15:40;8.00;99.90
15554;DHT22;7878;44.632;10.942;2022-11-30T06:18:07;8.10;99.90
15554;DHT22;7878;44.632;10.942;2022-11-30T06:20:33;8.10;99.90
15554;DHT22;7878;44.632;10.942;2022-11-30T06:22:59;8.10;99.90
15554;DHT22;7878;44.632;10.942;2022-11-30T06:25:25;8.20;99.90
15554;DHT22;7878;44.632;10.942;2022-11-30T06:27:51;8.10;99.90
15554;DHT22;7878;44.632;10.942;2022-11-30T06:30:17;8.10;99.90
15554;DHT22;7878;44.632;10.942;2022-11-30T06:32:50;8.10;99.90
15554;DHT22;7878;44.632;10.942;2022-11-30T06:35:17;8.00;99.90
15554;DHT22;7878;44.632;10.942;2022-11-30T06:37:43;8.10;99.90
15554;DHT22;7878;44.632;10.942;2022-11-30T06:40:10;8.10;99.90
15554;DHT22;7878;44.632;10.942;2022-11-30T06:42:36;8.10;99.90
15554;DHT22;7878;44.632;10.942;2022-11-30T06:45:03;8.10;99.90
15554;DHT22;7878;44.632;10.942;2022-11-30T06:47:29;8.10;99.90
15554;DHT22;7878;44.632;10.942;2022-11-30T06:49:55;8.10;99.90
15554;DHT22;7878;44.632;10.942;2022-11-30T06:52:20;8.20;99.90
15554;DHT22;7878;44.632;10.942;2022-11-30T06:54:46;8.30;99.90
15554;DHT22;7878;44.632;10.942;2022-11-30T06:57:12;8.30;99.90
15554;DHT22;7878;44.632;10.942;2022-11-30T06:59:37;8.30;99.90
15554;DHT22;7878;44.632;10.942;2022-11-30T07:02:13;8.40;99.90
15554;DHT22;7878;44.632;10.942;2022-11-30T07:04:39;8.40;99.90
15554;DHT22;7878;44.632;10.942;2022-11-30T07:07:05;8.40;99.90
15554;DHT22;7878;44.632;10.942;2022-11-30T07:09:33;8.50;99.90
15554;DHT22;7878;44.632;10.942;2022-11-30T07:11:59;8.50;99.90
15554;DHT22;7878;44.632;10.942;2022-11-30T07:14:25;8.50;99.90
15554;DHT22;7878;44.632;10.942;2022-11-30T07:16:51;8.60;99.90
15554;DHT22;7878;44.632;10.942;2022-11-30T07:19:17;8.60;99.90
15554;DHT22;7878;44.632;10.942;2022-11-30T07:21:42;8.60;99.90
15554;DHT22;7878;44.632;10.942;2022-11-30T07:24:10;8.60;99.90
15554;DHT22;7878;44.632;10.942;2022-11-30T07:26:54;8.60;99.90
15554;DHT22;7878;44.632;10.942;2022-11-30T07:29:20;8.70;99.90
15554;DHT22;7878;44.632;10.942;2022-11-30T07:31:49;8.70;99.90
15554;DHT22;7878;44.632;10.942;2022-11-30T07:34:16;8.70;99.90
15554;DHT22;7878;44.632;10.942;2022-11-30T07:36:42;8.70;99.90
15554;DHT22;7878;44.632;10.942;2022-11-30T07:39:07;8.80;99.90
15554;DHT22;7878;44.632;10.942;2022-11-30T07:41:33;8.80;99.90
15554;DHT22;7878;44.632;10.942;2022-11-30T07:43:58;8.80;99.90
15554;DHT22;7878;44.632;10.942;2022-11-30T07:46:24;8.80;99.90
15554;DHT22;7878;44.632;10.942;2022-11-30T07:48:50;8.80;99.90
15554;DHT22;7878;44.632;10.942;2022-11-30T07:51:20;8.80;99.90
15554;DHT22;7878;44.632;10.942;2022-11-30T07:53:46;8.90;99.90
15554;DHT22;7878;44.632;10.942;2022-11-30T07:56:14;8.90;99.90
15554;DHT22;7878;44.632;10.942;2022-11-30T07:58:41;9.00;99.90
15554;DHT22;7878;44.632;10.942;2022-11-30T08:01:15;9.10;99.90
15554;DHT22;7878;44.632;10.942;2022-11-30T08:03:41;9.20;99.90
15554;DHT22;7878;44.632;10.942;2022-11-30T08:06:09;9.30;99.90
15554;DHT22;7878;44.632;10.942;2022-11-30T08:08:37;9.30;99.90
15554;DHT22;7878;44.632;10.942;2022-11-30T08:11:05;9.30;99.90
15554;DHT22;7878;44.632;10.942;2022-11-30T08:13:31;9.30;99.90
15554;DHT22;7878;44.632;10.942;2022-11-30T08:16:02;9.40;99.90
15554;DHT22;7878;44.632;10.942;2022-11-30T08:18:28;9.40;99.90
15554;DHT22;7878;44.632;10.942;2022-11-30T08:20:58;9.40;99.90
15554;DHT22;7878;44.632;10.942;2022-11-30T08:23:28;9.40;99.90
15554;DHT22;7878;44.632;10.942;2022-11-30T08:25:54;9.50;99.90
15554;DHT22;7878;44.632;10.942;2022-11-30T08:28:20;9.40;99.90
15554;DHT22;7878;44.632;10.942;2022-11-30T08:30:45;9.40;99.90
15554;DHT22;7878;44.632;10.942;2022-11-30T08:33:11;9.40;99.90
15554;DHT22;7878;44.632;10.942;2022-11-30T08:35:37;9.40;99.90
15554;DHT22;7878;44.632;10.942;2022-11-30T08:38:03;9.40;99.90
15554;DHT22;7878;44.632;10.942;2022-11-30T08:40:28;9.50;99.90
15554;DHT22;7878;44.632;10.942;2022-11-30T08:42:54;9.50;99.90
15554;DHT22;7878;44.632;10.942;2022-11-30T08:45:20;9.50;99.90
15554;DHT22;7878;44.632;10.942;2022-11-30T08:47:45;9.60;99.90
15554;DHT22;7878;44.632;10.942;2022-11-30T08:50:11;9.70;99.90
15554;DHT22;7878;44.632;10.942;2022-11-30T08:52:37;9.80;99.90
15554;DHT22;7878;44.632;10.942;2022-11-30T08:55:03;9.80;99.90
15554;DHT22;7878;44.632;10.942;2022-11-30T08:57:29;9.80;99.90
15554;DHT22;7878;44.632;10.942;2022-11-30T08:59:55;9.90;99.90
15554;DHT22;7878;44.632;10.942;2022-11-30T09:02:21;10.10;99.90
15554;DHT22;7878;44.632;10.942;2022-11-30T09:04:47;10.30;99.90
15554;DHT22;7878;44.632;10.942;2022-11-30T09:07:13;10.40;99.90
15554;DHT22;7878;44.632;10.942;2022-11-30T09:09:39;10.40;99.90
15554;DHT22;7878;44.632;10.942;2022-11-30T09:12:06;10.50;99.90
15554;DHT22;7878;44.632;10.942;2022-11-30T09:14:32;10.60;99.90
15554;DHT22;7878;44.632;10.942;2022-11-30T09:16:58;10.70;99.90
15554;DHT22;7878;44.632;10.942;2022-11-30T09:19:25;10.70;99.90
15554;DHT22;7878;44.632;10.942;2022-11-30T09:21:50;10.80;99.90
15554;DHT22;7878;44.632;10.942;2022-11-30T09:24:16;10.90;99.90
15554;DHT22;7878;44.632;10.942;2022-11-30T09:26:42;11.00;99.90
15554;DHT22;7878;44.632;10.942;2022-11-30T09:29:07;11.10;99.90
15554;DHT22;7878;44.632;10.942;2022-11-30T09:31:33;11.30;99.90
15554;DHT22;7878;44.632;10.942;2022-11-30T09:33:59;11.60;99.90
15554;DHT22;7878;44.632;10.942;2022-11-30T09:36:25;11.90;99.90
15554;DHT22;7878;44.632;10.942;2022-11-30T09:38:52;12.20;99.90
15554;DHT22;7878;44.632;10.942;2022-11-30T09:44:01;12.80;99.90
15554;DHT22;7878;44.632;10.942;2022-11-30T09:46:34;12.90;99.90
15554;DHT22;7878;44.632;10.942;2022-11-30T09:49:12;13.20;99.90
15554;DHT22;7878;44.632;10.942;2022-11-30T09:51:49;13.50;99.90
15554;DHT22;7878;44.632;10.942;2022-11-30T09:54:37;13.80;99.90
15554;DHT22;7878;44.632;10.942;2022-11-30T09:57:29;14.30;99.90
15554;DHT22;7878;44.632;10.942;2022-11-30T09:59:57;14.60;99.40
15554;DHT22;7878;44.632;10.942;2022-11-30T10:02:32;14.60;99.90
15554;DHT22;7878;44.632;10.942;2022-11-30T10:05:00;14.30;99.20
15554;DHT22;7878;44.632;10.942;2022-11-30T10:10:15;14.10;99.60
15554;DHT22;7878;44.632;10.942;2022-11-30T10:24:04;14.10;99.40
15554;DHT22;7878;44.632;10.942;2022-11-30T10:26:34;13.90;99.90
15554;DHT22;7878;44.632;10.942;2022-11-30T10:29:25;13.60;99.90
15554;DHT22;7878;44.632;10.942;2022-11-30T10:31:57;13.30;99.10
15554;DHT22;7878;44.632;10.942;2022-11-30T10:34:34;12.90;99.90
15554;DHT22;7878;44.632;10.942;2022-11-30T10:37:26;12.70;99.90
15554;DHT22;7878;44.632;10.942;2022-11-30T10:42:33;12.40;99.90
15554;DHT22;7878;44.632;10.942;2022-11-30T10:45:14;12.20;99.90
15554;DHT22;7878;44.632;10.942;2022-11-30T10:48:04;12.00;99.90
15554;DHT22;7878;44.632;10.942;2022-11-30T10:50:32;11.90;99.90
15554;DHT22;7878;44.632;10.942;2022-11-30T10:52:59;11.80;99.90
15554;DHT22;7878;44.632;10.942;2022-11-30T10:55:30;11.80;99.90
15554;DHT22;7878;44.632;10.942;2022-11-30T10:58:06;12.00;99.90
15554;DHT22;7878;44.632;10.942;2022-11-30T11:00:35;12.20;99.90
15554;DHT22;7878;44.632;10.942;2022-11-30T11:03:00;12.60;99.90
15554;DHT22;7878;44.632;10.942;2022-11-30T11:05:29;12.80;99.90
15554;DHT22;7878;44.632;10.942;2022-11-30T11:08:00;13.10;99.90
15554;DHT22;7878;44.632;10.942;2022-11-30T11:13:01;14.30;99.40
15554;DHT22;7878;44.632;10.942;2022-11-30T11:15:36;15.00;98.60
15554;DHT22;7878;44.632;10.942;2022-11-30T11:20:46;16.00;95.80
15554;DHT22;7878;44.632;10.942;2022-11-30T11:23:33;15.80;96.10
15554;DHT22;7878;44.632;10.942;2022-11-30T11:25:59;15.00;94.70
15554;DHT22;7878;44.632;10.942;2022-11-30T11:28:25;14.50;96.60
15554;DHT22;7878;44.632;10.942;2022-11-30T11:30:53;14.20;96.70
15554;DHT22;7878;44.632;10.942;2022-11-30T11:33:25;14.10;96.60
15554;DHT22;7878;44.632;10.942;2022-11-30T11:35:53;14.70;96.40
15554;DHT22;7878;44.632;10.942;2022-11-30T11:38:25;17.80;95.10
15554;DHT22;7878;44.632;10.942;2022-11-30T11:41:03;18.80;91.50
15554;DHT22;7878;44.632;10.942;2022-11-30T11:43:31;19.20;91.00
15554;DHT22;7878;44.632;10.942;2022-11-30T11:46:01;19.10;91.00
15554;DHT22;7878;44.632;10.942;2022-11-30T11:48:47;18.70;91.60
15554;DHT22;7878;44.632;10.942;2022-11-30T11:51:31;18.30;83.90
15554;DHT22;7878;44.632;10.942;2022-11-30T11:54:21;17.90;86.10
15554;DHT22;7878;44.632;10.942;2022-11-30T11:56:48;17.90;90.70
15554;DHT22;7878;44.632;10.942;2022-11-30T12:02:00;17.20;90.10
15554;DHT22;7878;44.632;10.942;2022-11-30T12:07:37;16.00;86.40
15554;DHT22;7878;44.632;10.942;2022-11-30T12:12:36;15.10;88.60
15554;DHT22;7878;44.632;10.942;2022-11-30T12:15:03;15.00;90.20
15554;DHT22;7878;44.632;10.942;2022-11-30T12:18:00;15.10;90.20
15554;DHT22;7878;44.632;10.942;2022-11-30T12:29:20;15.60;87.70
15554;DHT22;7878;44.632;10.942;2022-11-30T12:40:29;14.70;88.30
15554;DHT22;7878;44.632;10.942;2022-11-30T12:43:53;14.70;86.70
15554;DHT22;7878;44.632;10.942;2022-11-30T12:46:33;14.60;83.70
15554;DHT22;7878;44.632;10.942;2022-11-30T12:52:06;14.00;83.70
15554;DHT22;7878;44.632;10.942;2022-11-30T12:57:49;13.40;85.70
15554;DHT22;7878;44.632;10.942;2022-11-30T13:00:22;13.20;85.00
15554;DHT22;7878;44.632;10.942;2022-11-30T13:05:42;12.80;87.60
15554;DHT22;7878;44.632;10.942;2022-11-30T13:08:22;12.60;87.90
15554;DHT22;7878;44.632;10.942;2022-11-30T13:10:55;12.50;88.90
15554;DHT22;7878;44.632;10.942;2022-11-30T13:13:25;12.40;90.30
15554;DHT22;7878;44.632;10.942;2022-11-30T13:15:51;12.30;90.60
15554;DHT22;7878;44.632;10.942;2022-11-30T13:18:19;12.20;90.50
15554;DHT22;7878;44.632;10.942;2022-11-30T13:24:13;12.10;90.70
15554;DHT22;7878;44.632;10.942;2022-11-30T13:32:15;12.00;90.10
15554;DHT22;7878;44.632;10.942;2022-11-30T13:34:41;11.90;90.60
15554;DHT22;7878;44.632;10.942;2022-11-30T13:37:12;11.80;91.20
15554;DHT22;7878;44.632;10.942;2022-11-30T13:39:57;11.80;90.90
15554;DHT22;7878;44.632;10.942;2022-11-30T13:42:41;11.80;91.50
15554;DHT22;7878;44.632;10.942;2022-11-30T13:48:15;11.70;91.60
15554;DHT22;7878;44.632;10.942;2022-11-30T13:50:36;11.70;91.70
15554;DHT22;7878;44.632;10.942;2022-11-30T13:58:08;11.70;91.40
15554;DHT22;7878;44.632;10.942;2022-11-30T14:05:53;11.60;91.60
15554;DHT22;7878;44.632;10.942;2022-11-30T14:15:51;11.60;92.40
15554;DHT22;7878;44.632;10.942;2022-11-30T14:18:29;11.60;92.30
15554;DHT22;7878;44.632;10.942;2022-11-30T14:21:15;11.50;92.60
15554;DHT22;7878;44.632;10.942;2022-11-30T14:26:26;11.40;92.20
15554;DHT22;7878;44.632;10.942;2022-11-30T14:31:51;11.30;92.40
15554;DHT22;7878;44.632;10.942;2022-11-30T14:34:30;11.30;92.50
15554;DHT22;7878;44.632;10.942;2022-11-30T14:37:02;11.30;92.70
15554;DHT22;7878;44.632;10.942;2022-11-30T14:39:36;11.30;93.00
15554;DHT22;7878;44.632;10.942;2022-11-30T14:42:04;11.30;92.50
15554;DHT22;7878;44.632;10.942;2022-11-30T14:44:35;11.20;92.70
15554;DHT22;7878;44.632;10.942;2022-11-30T14:47:18;11.20;92.40
15554;DHT22;7878;44.632;10.942;2022-11-30T14:49:46;11.20;92.20
15554;DHT22;7878;44.632;10.942;2022-11-30T14:52:16;11.20;92.90
15554;DHT22;7878;44.632;10.942;2022-11-30T14:55:03;11.20;93.20
15554;DHT22;7878;44.632;10.942;2022-11-30T14:57:40;11.20;92.80
15554;DHT22;7878;44.632;10.942;2022-11-30T15:00:16;11.20;93.00
15554;DHT22;7878;44.632;10.942;2022-11-30T15:02:43;11.20;93.10
15554;DHT22;7878;44.632;10.942;2022-11-30T15:05:22;11.10;93.30
15554;DHT22;7878;44.632;10.942;2022-11-30T15:07:49;11.20;93.30
15554;DHT22;7878;44.632;10.942;2022-11-30T15:10:38;11.20;93.30
15554;DHT22;7878;44.632;10.942;2022-11-30T15:13:03;11.10;93.30
15554;DHT22;7878;44.632;10.942;2022-11-30T15:15:29;11.20;93.80
15554;DHT22;7878;44.632;10.942;2022-11-30T15:18:13;11.10;93.30
15554;DHT22;7878;44.632;10.942;2022-11-30T15:23:19;11.10;93.50
15554;DHT22;7878;44.632;10.942;2022-11-30T15:25:51;11.10;93.60
15554;DHT22;7878;44.632;10.942;2022-11-30T15:28:25;11.10;93.60
15554;DHT22;7878;44.632;10.942;2022-11-30T15:30:55;11.10;93.70
15554;DHT22;7878;44.632;10.942;2022-11-30T15:33:23;11.00;93.80
15554;DHT22;7878;44.632;10.942;2022-11-30T15:35:53;11.10;94.00
15554;DHT22;7878;44.632;10.942;2022-11-30T15:38:26;11.00;93.80
15554;DHT22;7878;44.632;10.942;2022-11-30T15:41:00;11.00;93.90
15554;DHT22;7878;44.632;10.942;2022-11-30T15:43:35;11.00;93.90
15554;DHT22;7878;44.632;10.942;2022-11-30T15:46:05;11.00;94.00
15554;DHT22;7878;44.632;10.942;2022-11-30T15:48:34;11.00;94.00
15554;DHT22;7878;44.632;10.942;2022-11-30T15:51:02;10.90;94.20
15554;DHT22;7878;44.632;10.942;2022-11-30T15:58:41;10.80;94.20
15554;DHT22;7878;44.632;10.942;2022-11-30T16:01:18;10.80;94.10
15554;DHT22;7878;44.632;10.942;2022-11-30T16:06:29;10.80;94.30
15554;DHT22;7878;44.632;10.942;2022-11-30T16:08:58;10.80;94.60
15554;DHT22;7878;44.632;10.942;2022-11-30T16:11:26;10.80;94.60
15554;DHT22;7878;44.632;10.942;2022-11-30T16:13:52;10.80;94.60
15554;DHT22;7878;44.632;10.942;2022-11-30T16:16:23;10.80;94.60
15554;DHT22;7878;44.632;10.942;2022-11-30T16:18:50;10.80;94.70
15554;DHT22;7878;44.632;10.942;2022-11-30T16:21:18;10.80;94.80
15554;DHT22;7878;44.632;10.942;2022-11-30T16:23:45;10.80;94.70
15554;DHT22;7878;44.632;10.942;2022-11-30T16:26:13;10.80;94.70
15554;DHT22;7878;44.632;10.942;2022-11-30T16:28:38;10.80;94.80
15554;DHT22;7878;44.632;10.942;2022-11-30T16:31:05;10.80;94.80
15554;DHT22;7878;44.632;10.942;2022-11-30T16:33:31;10.80;94.80
15554;DHT22;7878;44.632;10.942;2022-11-30T16:36:05;10.80;94.90
15554;DHT22;7878;44.632;10.942;2022-11-30T16:38:32;10.80;95.00
15554;DHT22;7878;44.632;10.942;2022-11-30T16:41:22;10.80;95.00
15554;DHT22;7878;44.632;10.942;2022-11-30T16:43:53;10.80;94.80
15554;DHT22;7878;44.632;10.942;2022-11-30T16:46:22;10.80;95.00
15554;DHT22;7878;44.632;10.942;2022-11-30T16:48:48;10.80;95.20
15554;DHT22;7878;44.632;10.942;2022-11-30T16:51:29;10.80;94.90
15554;DHT22;7878;44.632;10.942;2022-11-30T16:53:56;10.80;94.70
15554;DHT22;7878;44.632;10.942;2022-11-30T16:56:22;10.80;94.90
15554;DHT22;7878;44.632;10.942;2022-11-30T16:58:48;10.80;94.90
15554;DHT22;7878;44.632;10.942;2022-11-30T17:03:40;10.70;94.70
15554;DHT22;7878;44.632;10.942;2022-11-30T17:06:08;10.70;94.60
15554;DHT22;7878;44.632;10.942;2022-11-30T17:08:38;10.70;94.80
15554;DHT22;7878;44.632;10.942;2022-11-30T17:11:04;10.70;94.70
15554;DHT22;7878;44.632;10.942;2022-11-30T17:13:29;10.70;94.80
15554;DHT22;7878;44.632;10.942;2022-11-30T17:15:55;10.70;94.80
15554;DHT22;7878;44.632;10.942;2022-11-30T17:18:21;10.70;94.70
15554;DHT22;7878;44.632;10.942;2022-11-30T17:20:46;10.70;94.60
15554;DHT22;7878;44.632;10.942;2022-11-30T17:23:12;10.70;94.50
15554;DHT22;7878;44.632;10.942;2022-11-30T17:25:37;10.60;94.60
15554;DHT22;7878;44.632;10.942;2022-11-30T17:28:03;10.60;94.50
15554;DHT22;7878;44.632;10.942;2022-11-30T17:30:29;10.60;94.50
15554;DHT22;7878;44.632;10.942;2022-11-30T17:32:54;10.60;94.50
15554;DHT22;7878;44.632;10.942;2022-11-30T17:35:20;10.60;94.60
15554;DHT22;7878;44.632;10.942;2022-11-30T17:37:46;10.60;94.50
15554;DHT22;7878;44.632;10.942;2022-11-30T17:40:12;10.60;94.70
15554;DHT22;7878;44.632;10.942;2022-11-30T17:42:39;10.60;94.60
15554;DHT22;7878;44.632;10.942;2022-11-30T17:45:04;10.60;94.70
15554;DHT22;7878;44.632;10.942;2022-11-30T17:47:30;10.70;94.80
15554;DHT22;7878;44.632;10.942;2022-11-30T17:49:56;10.60;94.70